createdAt,value
2022-12-23T00:01:16.084Z,94.31
2022-12-23T00:04:18.696Z,94.36
2022-12-23T00:07:21.585Z,94.10
2022-12-23T00:10:25.826Z,94.18
2022-12-23T00:13:46.433Z,94.30
2022-12-23T00:16:50.866Z,94.46
2022-12-23T00:19:53.707Z,94.66
2022-12-23T00:23:06.049Z,94.68
2022-12-23T00:26:23.677Z,94.52
2022-12-23T00:29:26.278Z,94.46
2022-12-23T00:32:29.215Z,94.38
2022-12-23T00:35:32.692Z,94.22
2022-12-23T00:38:53.811Z,94.85
2022-12-23T00:42:15.177Z,94.76
2022-12-23T00:45:17.782Z,94.40
2022-12-23T00:48:39.149Z,94.76
2022-12-23T00:51:41.548Z,94.73
2022-12-23T00:54:44.453Z,95.49
2022-12-23T00:57:47.200Z,95.21
2022-12-23T01:01:08.265Z,94.56
2022-12-23T01:04:31.849Z,94.39
2022-12-23T01:07:34.989Z,94.61
2022-12-23T01:10:48.439Z,94.52
2022-12-23T01:13:51.782Z,94.87
2022-12-23T01:16:54.285Z,94.79
2022-12-23T01:19:57.093Z,94.71
2022-12-23T01:22:59.499Z,94.90
2022-12-23T01:26:05.320Z,94.72
2022-12-23T01:29:08.156Z,94.72
2022-12-23T01:32:11.051Z,94.59
2022-12-23T01:35:13.727Z,94.99
2022-12-23T01:38:16.654Z,95.19
2022-12-23T01:41:44.265Z,95.58
2022-12-23T01:45:01.583Z,95.51
2022-12-23T01:48:12.371Z,94.97
2022-12-23T01:51:28.607Z,94.90
2022-12-23T01:54:31.301Z,95.22
2022-12-23T01:57:36.868Z,95.55
2022-12-23T02:01:01.348Z,95.91
2022-12-23T02:04:10.485Z,96.20
2022-12-23T02:07:32.807Z,96.29
2022-12-23T02:11:06.470Z,96.25
2022-12-23T02:15:12.592Z,96.27
2022-12-23T02:18:30.138Z,95.92
2022-12-23T02:22:06.607Z,95.91
2022-12-23T02:26:01.186Z,96.36
2022-12-23T02:29:03.842Z,96.39
2022-12-23T02:32:24.555Z,96.17
2022-12-23T02:35:36.261Z,96.17
2022-12-23T02:38:47.994Z,96.15
2022-12-23T02:42:07.186Z,95.90
2022-12-23T02:45:13.163Z,95.97
2022-12-23T02:48:47.044Z,96.22
2022-12-23T02:51:54.579Z,96.17
2022-12-23T02:55:01.884Z,96.25
2022-12-23T02:58:10.063Z,96.14
2022-12-23T03:01:16.161Z,96.34
2022-12-23T03:04:19.009Z,96.45
2022-12-23T03:07:31.511Z,96.42
2022-12-23T03:11:05.462Z,96.42
2022-12-23T03:14:13.875Z,96.27
2022-12-23T03:17:25.880Z,96.24
2022-12-23T03:20:41.960Z,96.29
2022-12-23T03:23:55.952Z,96.56
2022-12-23T03:27:10.217Z,96.33
2022-12-23T03:30:16.786Z,96.53
2022-12-23T03:33:24.840Z,96.39
2022-12-23T03:36:37.469Z,96.42
2022-12-23T03:39:51.289Z,96.28
2022-12-23T03:43:03.439Z,96.13
2022-12-23T03:46:20.712Z,96.27
2022-12-23T03:49:30.808Z,95.95
2022-12-23T03:52:41.410Z,96.05
2022-12-23T03:55:50.837Z,96.11
2022-12-23T03:59:14.775Z,95.67
2022-12-23T04:02:36.219Z,95.15
2022-12-23T04:05:41.938Z,95.14
2022-12-23T04:08:46.770Z,95.31
2022-12-23T04:11:49.645Z,95.38
2022-12-23T04:14:52.670Z,95.50
2022-12-23T04:17:57.556Z,96.04
2022-12-23T04:21:01.181Z,95.73
2022-12-23T04:24:03.829Z,95.65
2022-12-23T04:27:07.502Z,95.52
2022-12-23T04:30:12.289Z,95.87
2022-12-23T04:33:15.159Z,95.97
2022-12-23T04:36:17.865Z,95.54
2022-12-23T04:39:20.759Z,95.75
2022-12-23T04:42:23.655Z,95.62
2022-12-23T04:45:26.632Z,95.64
2022-12-23T04:48:29.081Z,95.80
2022-12-23T04:51:31.901Z,96.28
2022-12-23T04:54:34.555Z,96.25
2022-12-23T04:57:37.203Z,96.36
2022-12-23T05:00:40.288Z,96.42
2022-12-23T05:03:42.983Z,96.34
2022-12-23T05:06:45.536Z,96.58
2022-12-23T05:09:48.347Z,96.92
2022-12-23T05:12:50.789Z,96.80
2022-12-23T05:15:54.860Z,96.93
2022-12-23T05:18:57.852Z,97.06
2022-12-23T05:22:00.462Z,97.14
2022-12-23T05:25:03.045Z,97.13
2022-12-23T05:28:08.087Z,96.92
2022-12-23T05:31:14.075Z,96.96
2022-12-23T05:34:16.809Z,96.80
2022-12-23T05:37:19.578Z,96.96
2022-12-23T05:40:28.150Z,96.97
2022-12-23T05:43:34.900Z,97.00
2022-12-23T05:46:38.223Z,97.04
2022-12-23T05:49:41.225Z,96.99
2022-12-23T05:52:44.179Z,97.11
2022-12-23T05:55:47.246Z,97.31
2022-12-23T05:58:49.819Z,97.09
2022-12-23T06:01:52.651Z,97.55
2022-12-23T06:04:55.438Z,97.47
2022-12-23T06:07:58.246Z,97.68
2022-12-23T06:11:05.626Z,97.52
2022-12-23T06:14:08.095Z,97.49
2022-12-23T06:17:11.102Z,97.29
2022-12-23T06:20:20.314Z,97.06
2022-12-23T06:23:23.842Z,97.02
2022-12-23T06:26:26.681Z,96.92
2022-12-23T06:29:29.869Z,96.61
2022-12-23T06:32:37.918Z,96.55
2022-12-23T06:35:41.338Z,96.41
2022-12-23T06:38:44.171Z,96.58
2022-12-23T06:41:47.385Z,96.62
2022-12-23T06:44:49.869Z,96.47
2022-12-23T06:47:52.780Z,96.60
2022-12-23T06:50:56.524Z,96.55
2022-12-23T06:54:00.142Z,96.73
2022-12-23T06:57:03.015Z,96.91
2022-12-23T07:00:06.608Z,97.01
2022-12-23T07:03:09.724Z,96.89
2022-12-23T07:06:13.111Z,96.64
2022-12-23T07:09:15.984Z,96.79
2022-12-23T07:12:19.560Z,96.90
2022-12-23T07:15:22.640Z,97.13
2022-12-23T07:18:26.236Z,96.74
2022-12-23T07:21:30.061Z,97.36
2022-12-23T07:24:33.228Z,97.10
2022-12-23T07:27:35.897Z,97.28
2022-12-23T07:30:42.034Z,97.25
2022-12-23T07:33:44.964Z,97.16
2022-12-23T07:36:47.803Z,97.23
2022-12-23T07:39:50.540Z,97.14
2022-12-23T07:42:59.075Z,97.10
2022-12-23T07:46:07.462Z,97.15
2022-12-23T07:49:10.776Z,97.31
2022-12-23T07:52:13.196Z,97.29
2022-12-23T07:55:16.202Z,97.38
2022-12-23T07:58:18.855Z,97.38
2022-12-23T08:01:22.261Z,97.56
2022-12-23T08:04:25.196Z,97.21
2022-12-23T08:07:27.910Z,97.19
2022-12-23T08:10:30.965Z,97.40
2022-12-23T08:13:36.113Z,97.09
2022-12-23T08:16:43.599Z,97.16
2022-12-23T08:19:48.470Z,97.41
2022-12-23T08:22:51.093Z,97.12
2022-12-23T08:26:00.431Z,97.51
2022-12-23T08:29:03.104Z,97.27
2022-12-23T08:32:06.240Z,96.97
2022-12-23T08:35:09.091Z,96.86
2022-12-23T08:38:12.046Z,97.16
2022-12-23T08:41:18.665Z,97.22
2022-12-23T08:44:22.582Z,97.11
2022-12-23T08:47:25.276Z,97.38
2022-12-23T08:50:31.467Z,97.26
2022-12-23T08:53:35.578Z,97.04
2022-12-23T08:56:42.204Z,97.13
2022-12-23T08:59:45.079Z,96.86
2022-12-23T09:02:48.111Z,96.39
2022-12-23T09:05:51.052Z,96.68
2022-12-23T09:08:54.024Z,96.46
2022-12-23T09:11:57.133Z,96.45
2022-12-23T09:15:00.306Z,96.69
2022-12-23T09:18:02.797Z,96.78
2022-12-23T09:21:11.194Z,96.75
2022-12-23T09:24:13.627Z,97.03
2022-12-23T09:27:16.634Z,96.72
2022-12-23T09:30:19.272Z,96.97
2022-12-23T09:33:21.988Z,96.75
2022-12-23T09:36:24.942Z,96.50
2022-12-23T09:39:28.670Z,96.41
2022-12-23T09:42:51.032Z,96.45
2022-12-23T09:46:15.295Z,96.75
2022-12-23T09:49:18.979Z,96.79
2022-12-23T09:52:46.843Z,96.60
2022-12-23T09:55:53.671Z,96.43
2022-12-23T09:59:19.728Z,96.48
2022-12-23T10:02:32.516Z,96.77
2022-12-23T10:06:11.002Z,96.71
2022-12-23T10:09:15.205Z,96.87
2022-12-23T10:12:40.248Z,96.94
2022-12-23T10:15:48.002Z,97.05
2022-12-23T10:18:57.308Z,97.06
2022-12-23T10:22:06.349Z,96.99
2022-12-23T10:25:28.696Z,97.13
2022-12-23T10:28:31.219Z,97.15
2022-12-23T10:32:12.721Z,97.04
2022-12-23T10:35:39.671Z,97.04
2022-12-23T10:38:49.481Z,96.92
2022-12-23T10:41:54.990Z,96.73
2022-12-23T10:45:14.194Z,96.99
2022-12-23T10:48:41.733Z,97.02
2022-12-23T10:51:57.910Z,97.17
2022-12-23T10:55:00.506Z,97.18
2022-12-23T10:58:18.500Z,97.16
2022-12-23T11:01:27.116Z,97.34
2022-12-23T11:04:35.624Z,97.34
2022-12-23T11:07:46.208Z,97.13
2022-12-23T11:10:50.630Z,97.40
2022-12-23T11:13:53.323Z,97.27
2022-12-23T11:16:56.119Z,97.32
2022-12-23T11:20:15.848Z,97.46
2022-12-23T11:23:28.189Z,97.22
2022-12-23T11:26:30.955Z,96.82
2022-12-23T11:29:43.936Z,96.92
2022-12-23T11:32:46.568Z,97.21
2022-12-23T11:36:00.734Z,97.44
2022-12-23T11:39:12.395Z,97.50
2022-12-23T11:42:20.626Z,97.45
2022-12-23T11:45:26.169Z,97.71
2022-12-23T11:48:30.559Z,97.64
2022-12-23T11:51:33.187Z,97.88
2022-12-23T11:54:37.077Z,97.81
2022-12-23T11:57:44.504Z,97.54
2022-12-23T12:00:57.734Z,97.88
2022-12-23T12:04:03.384Z,97.86
2022-12-23T12:07:11.841Z,98.07
2022-12-23T12:10:29.337Z,98.17
2022-12-23T12:13:48.314Z,98.35
2022-12-23T12:17:05.753Z,98.78
2022-12-23T12:20:26.673Z,98.50
2022-12-23T12:23:48.548Z,98.48
2022-12-23T12:26:58.159Z,98.41
2022-12-23T12:30:08.422Z,98.32
2022-12-23T12:33:36.264Z,97.97
2022-12-23T12:37:13.636Z,98.20
2022-12-23T12:40:28.471Z,98.32
2022-12-23T12:43:33.483Z,98.77
2022-12-23T12:46:54.089Z,98.67
2022-12-23T12:50:04.914Z,99.03
2022-12-23T12:53:18.218Z,99.06
2022-12-23T12:56:30.643Z,98.99
2022-12-23T12:59:38.348Z,99.00
2022-12-23T13:03:28.109Z,99.29
2022-12-23T13:06:38.895Z,98.96
2022-12-23T13:10:11.696Z,99.17
2022-12-23T13:13:48.394Z,99.19
2022-12-23T13:17:12.533Z,99.24
2022-12-23T13:20:20.290Z,99.35
2022-12-23T13:23:44.164Z,99.36
2022-12-23T13:27:28.640Z,99.63
2022-12-23T13:30:44.072Z,99.67
2022-12-23T13:34:14.293Z,99.58
2022-12-23T13:37:42.318Z,99.52
2022-12-23T13:41:03.515Z,99.57
2022-12-23T13:44:10.760Z,99.68
2022-12-23T13:47:16.464Z,99.57
2022-12-23T13:50:25.775Z,99.53
2022-12-23T13:53:51.409Z,99.82
2022-12-23T13:57:08.547Z,99.61
2022-12-23T14:00:17.471Z,99.85
2022-12-23T14:03:24.649Z,100.00
2022-12-23T14:06:33.199Z,100.00
2022-12-23T14:09:38.378Z,100.00
2022-12-23T14:12:43.301Z,100.00
2022-12-23T14:16:00.892Z,100.00
2022-12-23T14:19:18.739Z,100.00
2022-12-23T14:22:54.318Z,100.00
2022-12-23T14:26:15.445Z,100.00
2022-12-23T14:29:50.337Z,100.00
2022-12-23T14:32:59.023Z,100.00
2022-12-23T14:36:23.639Z,100.00
2022-12-23T14:39:31.921Z,100.00
2022-12-23T14:42:42.820Z,100.00
2022-12-23T14:45:45.980Z,100.00
2022-12-23T14:48:48.361Z,100.00
2022-12-23T14:51:51.193Z,100.00
2022-12-23T14:55:21.009Z,100.00
2022-12-23T14:58:16.714Z,100.00
2022-12-23T15:01:34.130Z,100.00
2022-12-23T15:04:51.066Z,100.00
2022-12-23T15:07:56.120Z,100.00
2022-12-23T15:10:59.843Z,100.00
2022-12-23T15:14:11.141Z,100.00
2022-12-23T15:17:17.420Z,100.00
2022-12-23T15:20:24.159Z,100.00
2022-12-23T15:23:27.582Z,100.00
2022-12-23T15:26:32.860Z,100.00
2022-12-23T15:29:36.333Z,100.00
2022-12-23T15:32:43.000Z,100.00
2022-12-23T15:35:46.582Z,100.00
2022-12-23T15:38:49.102Z,100.00
2022-12-23T15:41:51.944Z,100.00
2022-12-23T15:44:55.039Z,100.00
2022-12-23T15:47:58.141Z,100.00
2022-12-23T15:51:07.544Z,100.00
2022-12-23T15:54:23.243Z,100.00
2022-12-23T15:57:28.461Z,100.00
2022-12-23T16:00:49.586Z,100.00
2022-12-23T16:03:56.129Z,100.00
2022-12-23T16:06:59.027Z,100.00
2022-12-23T16:10:13.123Z,100.00
2022-12-23T16:13:20.517Z,100.00
2022-12-23T16:16:42.384Z,100.00
2022-12-23T16:19:49.386Z,100.00
2022-12-23T16:22:54.392Z,100.00
2022-12-23T16:26:00.402Z,100.00
2022-12-23T16:29:03.284Z,100.00
2022-12-23T16:32:14.067Z,100.00
2022-12-23T16:35:39.447Z,100.00
2022-12-23T16:38:42.534Z,100.00
2022-12-23T16:41:45.533Z,100.00
2022-12-23T16:44:48.678Z,100.00
2022-12-23T16:47:55.790Z,100.00
2022-12-23T16:51:01.074Z,100.00
2022-12-23T16:54:03.545Z,100.00
2022-12-23T16:57:06.596Z,100.00
2022-12-23T17:00:17.385Z,100.00
2022-12-23T17:03:20.867Z,100.00
2022-12-23T17:06:24.549Z,100.00
2022-12-23T17:09:27.257Z,100.00
2022-12-23T17:12:29.991Z,100.00
2022-12-23T17:15:33.056Z,100.00
2022-12-23T17:18:37.065Z,100.00
2022-12-23T17:21:43.170Z,100.00
2022-12-23T17:24:45.576Z,100.00
2022-12-23T17:27:52.168Z,100.00
2022-12-23T17:30:56.679Z,100.00
2022-12-23T17:34:00.321Z,100.00
2022-12-23T17:37:03.237Z,100.00
2022-12-23T17:40:07.492Z,100.00
2022-12-23T17:43:15.982Z,100.00
2022-12-23T17:46:19.048Z,99.92
2022-12-23T17:49:21.646Z,99.29
2022-12-23T17:52:24.743Z,99.33
2022-12-23T17:55:27.285Z,99.28
2022-12-23T17:58:30.067Z,98.89
2022-12-23T18:01:32.846Z,98.23
2022-12-23T18:04:35.587Z,97.26
2022-12-23T18:07:38.334Z,96.92
2022-12-23T18:10:42.080Z,96.52
2022-12-23T18:13:44.892Z,96.54
2022-12-23T18:16:48.125Z,95.69
2022-12-23T18:19:50.942Z,95.60
2022-12-23T18:22:55.038Z,95.75
2022-12-23T18:25:58.286Z,96.11
2022-12-23T18:29:01.129Z,95.73
2022-12-23T18:32:04.160Z,96.58
2022-12-23T18:35:30.039Z,96.57
2022-12-23T18:38:32.833Z,96.76
2022-12-23T18:41:35.600Z,96.98
2022-12-23T18:44:38.523Z,97.04
2022-12-23T18:47:41.393Z,97.45
2022-12-23T18:50:45.758Z,97.05
2022-12-23T18:53:48.826Z,97.24
2022-12-23T18:56:51.199Z,97.34
2022-12-23T18:59:54.022Z,97.13
2022-12-23T19:02:57.285Z,96.94
2022-12-23T19:06:06.859Z,96.97
2022-12-23T19:09:16.554Z,96.60
2022-12-23T19:12:19.845Z,96.21
2022-12-23T19:15:23.520Z,96.16
2022-12-23T19:18:26.385Z,95.80
2022-12-23T19:21:29.061Z,95.99
2022-12-23T19:24:32.112Z,95.93
2022-12-23T19:27:34.661Z,95.65
2022-12-23T19:30:41.986Z,95.31
2022-12-23T19:33:46.594Z,96.01
2022-12-23T19:36:49.640Z,96.53
2022-12-23T19:39:52.498Z,96.75
2022-12-23T19:42:55.395Z,96.22
2022-12-23T19:45:59.749Z,96.16
2022-12-23T19:49:02.929Z,96.21
2022-12-23T19:52:05.475Z,95.84
2022-12-23T19:55:08.736Z,96.02
2022-12-23T19:58:11.234Z,95.97
2022-12-23T20:01:31.974Z,96.53
2022-12-23T20:04:34.765Z,96.71
2022-12-23T20:07:37.843Z,97.00
2022-12-23T20:10:42.840Z,97.45
2022-12-23T20:13:46.818Z,97.64
2022-12-23T20:16:49.634Z,98.20
2022-12-23T20:19:52.436Z,98.13
2022-12-23T20:22:54.966Z,98.07
2022-12-23T20:25:58.194Z,98.17
2022-12-23T20:29:00.891Z,98.41
2022-12-23T20:32:03.917Z,98.85
2022-12-23T20:35:06.918Z,98.88
2022-12-23T20:38:09.789Z,98.75
2022-12-23T20:41:16.229Z,98.54
2022-12-23T20:44:36.513Z,98.47
2022-12-23T20:47:40.094Z,98.14
2022-12-23T20:50:51.242Z,98.04
2022-12-23T20:53:56.167Z,98.46
2022-12-23T20:56:59.288Z,98.75
2022-12-23T21:00:05.065Z,98.68
2022-12-23T21:03:10.653Z,98.31
2022-12-23T21:06:13.645Z,98.08
2022-12-23T21:09:16.667Z,98.46
2022-12-23T21:12:19.461Z,98.43
2022-12-23T21:15:23.580Z,97.80
2022-12-23T21:18:26.130Z,96.50
2022-12-23T21:21:31.339Z,97.22
2022-12-23T21:24:33.790Z,97.01
2022-12-23T21:27:36.657Z,96.62
2022-12-23T21:30:44.378Z,96.85
2022-12-23T21:33:48.301Z,96.82
2022-12-23T21:36:51.170Z,97.46
2022-12-23T21:39:54.055Z,97.67
2022-12-23T21:42:56.695Z,97.67
2022-12-23T21:46:01.712Z,98.08
2022-12-23T21:49:04.510Z,98.15
2022-12-23T21:52:07.464Z,97.80
2022-12-23T21:55:11.186Z,97.30
2022-12-23T21:58:14.091Z,97.36
2022-12-23T22:01:19.819Z,97.83
2022-12-23T22:04:23.519Z,97.67
2022-12-23T22:07:26.191Z,97.85
2022-12-23T22:10:28.953Z,98.04
2022-12-23T22:13:32.187Z,98.17
2022-12-23T22:16:35.852Z,98.06
2022-12-23T22:19:38.516Z,98.28
2022-12-23T22:22:41.469Z,97.79
2022-12-23T22:25:54.932Z,97.69
2022-12-23T22:28:59.833Z,97.45
2022-12-23T22:32:02.481Z,97.34
2022-12-23T22:35:05.887Z,97.48
2022-12-23T22:38:08.831Z,97.84
2022-12-23T22:41:11.902Z,98.07
2022-12-23T22:44:15.128Z,98.02
2022-12-23T22:47:17.879Z,98.28
2022-12-23T22:50:21.920Z,98.33
2022-12-23T22:53:29.599Z,98.09
2022-12-23T22:56:32.871Z,97.89
2022-12-23T22:59:35.629Z,98.08
2022-12-23T23:02:38.116Z,98.25
2022-12-23T23:05:41.335Z,98.50
2022-12-23T23:08:44.212Z,98.69
2022-12-23T23:11:47.649Z,98.60
2022-12-23T23:14:53.284Z,98.44
2022-12-23T23:17:56.500Z,98.48
2022-12-23T23:20:59.389Z,98.44
2022-12-23T23:24:02.320Z,98.48
2022-12-23T23:27:04.974Z,98.56
2022-12-23T23:30:09.350Z,98.54
2022-12-23T23:33:12.054Z,98.73
2022-12-23T23:36:15.278Z,98.60
2022-12-23T23:39:18.070Z,98.51
2022-12-23T23:42:20.802Z,98.82
2022-12-23T23:45:23.587Z,99.07
2022-12-23T23:48:26.458Z,98.78
2022-12-23T23:51:29.178Z,99.02
2022-12-23T23:54:31.869Z,99.21
2022-12-23T23:57:34.345Z,99.08
